createdAt,value
2017-06-23T00:01:21.655Z,13.27
2017-06-23T00:03:49.208Z,14.07
2017-06-23T00:06:16.721Z,14.90
2017-06-23T00:08:44.570Z,13.23
2017-06-23T00:11:12.120Z,12.60
2017-06-23T00:13:39.658Z,14.37
2017-06-23T00:16:07.553Z,13.90
2017-06-23T00:18:35.064Z,13.70
2017-06-23T00:21:03.362Z,17.27
2017-06-23T00:23:31.255Z,15.00
2017-06-23T00:25:58.770Z,14.77
2017-06-23T00:28:26.332Z,15.60
2017-06-23T00:30:54.920Z,28.60
2017-06-23T00:33:23.247Z,15.80
2017-06-23T00:35:50.754Z,17.87
2017-06-23T00:38:19.402Z,15.77
2017-06-23T00:40:46.937Z,15.13
2017-06-23T00:43:14.445Z,15.10
2017-06-23T00:45:42.398Z,15.43
2017-06-23T00:48:09.916Z,15.10
2017-06-23T00:50:37.439Z,15.67
2017-06-23T00:53:06.067Z,14.43
2017-06-23T00:55:33.598Z,16.13
2017-06-23T00:58:01.886Z,15.20
2017-06-23T01:00:29.720Z,15.30
2017-06-23T01:02:57.239Z,16.47
2017-06-23T01:05:24.761Z,16.77
2017-06-23T01:07:53.404Z,15.20
2017-06-23T01:10:20.920Z,15.80
2017-06-23T01:12:48.466Z,15.03
2017-06-23T01:15:17.063Z,13.30
2017-06-23T01:17:44.569Z,14.90
2017-06-23T01:20:12.110Z,14.70
2017-06-23T01:22:39.936Z,13.73
2017-06-23T01:25:07.444Z,15.60
2017-06-23T01:27:34.966Z,15.57
2017-06-23T01:30:02.867Z,14.20
2017-06-23T01:32:30.419Z,13.47
2017-06-23T01:34:57.965Z,15.97
2017-06-23T01:37:25.861Z,12.50
2017-06-23T01:39:53.378Z,12.33
2017-06-23T01:42:21.659Z,9.97
2017-06-23T01:44:50.288Z,12.17
2017-06-23T01:47:17.813Z,13.37
2017-06-23T01:49:45.338Z,12.63
2017-06-23T01:52:13.282Z,13.73
2017-06-23T01:54:40.811Z,11.70
2017-06-23T01:57:08.334Z,10.83
2017-06-23T01:59:36.254Z,12.40
2017-06-23T02:02:03.767Z,13.27
2017-06-23T02:04:31.319Z,12.00
2017-06-23T02:06:59.262Z,12.40
2017-06-23T02:09:26.781Z,12.30
2017-06-23T02:11:54.288Z,11.70
2017-06-23T02:14:22.232Z,11.37
2017-06-23T02:16:49.759Z,11.77
2017-06-23T02:19:18.037Z,11.87
2017-06-23T02:21:45.879Z,13.77
2017-06-23T02:24:13.414Z,12.10
2017-06-23T02:26:40.949Z,12.57
2017-06-23T02:29:08.777Z,14.63
2017-06-23T02:31:36.298Z,13.27
2017-06-23T02:34:03.808Z,17.40
2017-06-23T02:36:31.695Z,15.70
2017-06-23T02:38:59.210Z,16.87
2017-06-23T02:41:26.736Z,12.43
2017-06-23T02:43:54.551Z,10.87
2017-06-23T02:46:22.061Z,9.00
2017-06-23T02:48:49.579Z,12.17
2017-06-23T02:51:18.194Z,9.07
2017-06-23T02:53:45.707Z,9.70
2017-06-23T02:56:13.217Z,9.73
2017-06-23T02:58:41.045Z,12.33
2017-06-23T03:01:09.339Z,10.17
2017-06-23T03:03:36.853Z,11.27
2017-06-23T03:06:04.811Z,11.00
2017-06-23T03:08:32.324Z,13.27
2017-06-23T03:10:59.838Z,13.17
2017-06-23T03:13:27.771Z,13.87
2017-06-23T03:15:55.298Z,15.93
2017-06-23T03:18:23.589Z,18.33
2017-06-23T03:20:51.414Z,17.73
2017-06-23T03:23:18.939Z,17.43
2017-06-23T03:25:46.477Z,18.80
2017-06-23T03:28:14.308Z,16.93
2017-06-23T03:30:41.834Z,17.97
2017-06-23T03:33:09.360Z,18.63
2017-06-23T03:35:37.173Z,19.47
2017-06-23T03:38:04.711Z,19.43
2017-06-23T03:40:32.243Z,20.10
2017-06-23T03:43:00.867Z,20.77
2017-06-23T03:45:28.398Z,19.57
2017-06-23T03:47:55.938Z,21.30
2017-06-23T03:56:00.542Z,21.73
2017-06-23T03:58:28.104Z,21.07
2017-06-23T04:00:55.699Z,21.63
2017-06-23T04:03:23.546Z,23.00
2017-06-23T04:05:51.089Z,27.83
2017-06-23T04:08:18.593Z,20.83
2017-06-23T04:10:46.440Z,22.00
2017-06-23T04:13:13.961Z,20.23
2017-06-23T04:15:41.475Z,22.90
2017-06-23T04:18:09.296Z,23.73
2017-06-23T04:20:36.811Z,23.23
2017-06-23T04:23:04.338Z,23.23
2017-06-23T04:25:32.133Z,20.73
2017-06-23T04:27:59.640Z,22.47
2017-06-23T04:30:27.164Z,20.87
2017-06-23T04:32:55.808Z,21.70
2017-06-23T04:35:23.340Z,25.83
2017-06-23T04:37:50.864Z,30.13
2017-06-23T04:40:19.488Z,28.23
2017-06-23T04:42:47.002Z,29.27
2017-06-23T04:45:14.533Z,24.40
2017-06-23T04:47:42.351Z,25.80
2017-06-23T04:50:10.637Z,27.43
2017-06-23T04:52:38.176Z,27.33
2017-06-23T04:55:06.914Z,22.97
2017-06-23T04:57:34.427Z,22.50
2017-06-23T05:00:02.716Z,27.87
2017-06-23T05:02:30.561Z,26.47
2017-06-23T05:04:58.176Z,26.43
2017-06-23T05:07:25.680Z,30.10
2017-06-23T05:09:53.526Z,27.23
2017-06-23T05:12:21.158Z,28.53
2017-06-23T05:14:48.713Z,31.30
2017-06-23T05:17:16.518Z,26.80
2017-06-23T05:19:44.045Z,31.60
2017-06-23T05:22:11.553Z,31.73
2017-06-23T05:24:39.346Z,30.90
2017-06-23T05:27:09.961Z,27.10
2017-06-23T05:29:43.979Z,30.63
2017-06-23T05:32:17.638Z,25.63
2017-06-23T05:34:45.617Z,28.27
2017-06-23T05:37:20.138Z,33.47
2017-06-23T05:42:49.425Z,27.80
2017-06-23T05:45:22.834Z,34.07
2017-06-23T05:47:56.891Z,27.90
2017-06-23T05:50:25.835Z,23.50
2017-06-23T05:52:59.837Z,27.80
2017-06-23T05:55:27.377Z,23.60
2017-06-23T05:57:54.904Z,27.90
2017-06-23T06:00:22.724Z,31.97
2017-06-23T06:02:50.256Z,22.93
2017-06-23T06:05:18.536Z,24.07
2017-06-23T06:07:54.625Z,24.97
2017-06-23T06:10:29.807Z,29.37
2017-06-23T06:13:01.362Z,23.07
2017-06-23T06:15:32.214Z,27.33
2017-06-23T06:18:07.066Z,25.97
2017-06-23T06:20:38.522Z,28.63
2017-06-23T06:23:12.698Z,27.57
2017-06-23T06:25:40.229Z,32.23
2017-06-23T06:28:11.187Z,25.43
2017-06-23T06:31:02.556Z,28.10
2017-06-23T06:33:38.539Z,29.07
2017-06-23T06:36:19.220Z,24.23
2017-06-23T06:38:48.366Z,21.33
2017-06-23T06:41:19.611Z,25.40
2017-06-23T06:43:59.580Z,25.77
2017-06-23T06:46:36.994Z,29.93
2017-06-23T06:49:14.469Z,24.20
2017-06-23T06:51:46.125Z,22.17
2017-06-23T06:54:23.275Z,21.77
2017-06-23T06:56:58.376Z,22.97
2017-06-23T06:59:32.067Z,23.07
2017-06-23T07:02:05.644Z,26.87
2017-06-23T07:04:40.448Z,24.33
2017-06-23T07:07:14.818Z,20.13
2017-06-23T07:09:50.515Z,21.33
2017-06-23T07:12:22.019Z,25.13
2017-06-23T07:14:59.448Z,20.80
2017-06-23T07:17:36.880Z,24.40
2017-06-23T07:20:17.134Z,20.33
2017-06-23T07:22:48.321Z,20.90
2017-06-23T07:25:21.741Z,21.83
2017-06-23T07:27:56.742Z,20.40
2017-06-23T07:30:25.769Z,22.53
2017-06-23T07:32:56.919Z,20.27
2017-06-23T07:35:27.663Z,20.63
2017-06-23T07:37:59.117Z,21.53
2017-06-23T07:40:34.463Z,20.67
2017-06-23T07:43:06.121Z,22.97
2017-06-23T07:45:36.867Z,21.60
2017-06-23T07:48:11.802Z,20.90
2017-06-23T07:50:45.568Z,20.30
2017-06-23T07:53:19.962Z,21.90
2017-06-23T07:55:54.630Z,22.00
2017-06-23T07:58:29.505Z,20.03
2017-06-23T08:01:02.694Z,20.50
2017-06-23T08:03:34.131Z,23.33
2017-06-23T08:06:07.816Z,21.90
2017-06-23T08:08:39.311Z,21.53
2017-06-23T08:11:12.790Z,22.27
2017-06-23T08:13:42.335Z,21.03
2017-06-23T08:16:17.683Z,23.50
2017-06-23T08:18:51.851Z,22.77
2017-06-23T08:21:27.303Z,21.53
2017-06-23T08:24:02.513Z,22.70
2017-06-23T08:26:36.556Z,21.47
2017-06-23T08:29:10.973Z,24.67
2017-06-23T08:31:44.565Z,20.00
2017-06-23T08:34:18.039Z,21.77
2017-06-23T08:36:51.820Z,22.43
2017-06-23T08:39:22.569Z,21.80
2017-06-23T08:41:55.845Z,20.93
2017-06-23T08:44:30.125Z,21.27
2017-06-23T08:47:16.956Z,23.47
2017-06-23T08:49:50.740Z,21.37
2017-06-23T08:52:21.787Z,19.70
2017-06-23T08:54:59.852Z,22.33
2017-06-23T08:57:37.427Z,22.83
2017-06-23T09:00:13.108Z,19.83
2017-06-23T09:02:50.947Z,19.20
2017-06-23T09:05:27.167Z,19.87
2017-06-23T09:08:02.919Z,20.10
2017-06-23T09:10:37.271Z,20.10
2017-06-23T09:13:11.818Z,19.00
2017-06-23T09:15:43.399Z,19.37
2017-06-23T09:18:20.764Z,19.60
2017-06-23T09:20:52.110Z,19.63
2017-06-23T09:23:32.153Z,18.17
2017-06-23T09:26:07.551Z,19.63
2017-06-23T09:28:42.430Z,15.87
2017-06-23T09:31:17.722Z,14.83
2017-06-23T09:33:53.678Z,17.37
2017-06-23T09:36:31.977Z,20.17
2017-06-23T09:39:06.691Z,13.63
2017-06-23T09:41:46.922Z,14.83
2017-06-23T09:44:21.647Z,13.60
2017-06-23T09:46:56.015Z,15.30
2017-06-23T09:49:30.711Z,14.57
2017-06-23T09:52:04.211Z,12.23
2017-06-23T09:54:42.134Z,14.90
2017-06-23T09:57:17.264Z,16.67
2017-06-23T09:59:55.219Z,12.97
2017-06-23T10:02:26.645Z,14.97
2017-06-23T10:05:04.118Z,14.90
2017-06-23T10:07:40.192Z,14.97
2017-06-23T10:10:14.882Z,14.97
2017-06-23T10:12:50.192Z,15.27
2017-06-23T10:15:26.084Z,14.63
2017-06-23T10:18:06.221Z,14.93
2017-06-23T10:20:46.060Z,14.17
2017-06-23T10:23:22.370Z,16.30
2017-06-23T10:25:53.232Z,15.50
2017-06-23T10:28:28.291Z,16.57
2017-06-23T10:30:59.445Z,17.73
2017-06-23T10:33:34.544Z,17.03
2017-06-23T10:36:12.275Z,16.30
2017-06-23T10:38:46.442Z,14.03
2017-06-23T10:41:17.580Z,15.93
2017-06-23T10:43:52.398Z,15.70
2017-06-23T10:46:25.998Z,15.60
2017-06-23T10:49:01.211Z,14.60
2017-06-23T10:51:34.667Z,14.80
2017-06-23T10:54:15.686Z,14.70
2017-06-23T10:56:53.649Z,16.93
2017-06-23T10:59:28.071Z,15.20
2017-06-23T11:02:03.864Z,13.87
2017-06-23T11:04:42.208Z,13.70
2017-06-23T11:07:19.746Z,13.47
2017-06-23T11:09:55.945Z,13.40
2017-06-23T11:12:27.073Z,13.57
2017-06-23T11:15:02.259Z,13.40
2017-06-23T11:17:37.714Z,12.93
2017-06-23T11:20:12.167Z,12.53
2017-06-23T11:22:47.590Z,14.90
2017-06-23T11:25:25.774Z,15.60
2017-06-23T11:28:00.261Z,12.40
2017-06-23T11:30:36.295Z,12.50
2017-06-23T11:33:10.372Z,21.37
2017-06-23T11:35:51.232Z,11.40
2017-06-23T11:38:22.270Z,12.07
2017-06-23T11:40:56.263Z,14.90
2017-06-23T11:43:30.883Z,24.17
2017-06-23T11:46:06.109Z,21.60
2017-06-23T11:48:37.068Z,34.73
2017-06-23T11:51:11.270Z,78.50
2017-06-23T11:53:46.855Z,12.83
2017-06-23T11:56:25.148Z,12.43
2017-06-23T11:58:59.713Z,9.97
2017-06-23T12:01:33.934Z,13.37
2017-06-23T12:04:11.903Z,13.23
2017-06-23T12:06:46.426Z,9.13
2017-06-23T12:09:21.863Z,7.47
2017-06-23T12:11:55.937Z,8.13
2017-06-23T12:17:25.011Z,7.90
2017-06-23T12:20:02.388Z,8.10
2017-06-23T12:22:33.628Z,9.07
2017-06-23T12:25:18.034Z,8.83
2017-06-23T12:28:03.200Z,9.50
2017-06-23T12:30:34.394Z,9.63
2017-06-23T12:38:48.384Z,13.87
2017-06-23T12:41:15.889Z,13.80
2017-06-23T12:43:43.472Z,8.90
2017-06-23T12:46:11.358Z,9.23
2017-06-23T12:48:40.381Z,9.23
2017-06-23T12:51:07.912Z,10.47
2017-06-23T12:53:39.112Z,9.97
2017-06-23T12:56:09.540Z,9.53
2017-06-23T12:58:50.991Z,9.67
2017-06-23T13:04:28.884Z,7.43
2017-06-23T13:06:59.705Z,7.97
2017-06-23T13:09:31.110Z,8.57
2017-06-23T13:12:02.319Z,9.10
2017-06-23T13:14:39.997Z,8.53
2017-06-23T13:17:17.666Z,7.60
2017-06-23T13:19:54.022Z,8.13
2017-06-23T13:22:25.056Z,9.00
2017-06-23T13:24:58.841Z,7.73
2017-06-23T13:27:32.455Z,8.07
2017-06-23T13:30:04.067Z,8.27
2017-06-23T13:32:34.810Z,6.73
2017-06-23T13:35:09.632Z,7.90
2017-06-23T13:37:40.652Z,7.57
2017-06-23T13:40:12.522Z,8.07
2017-06-23T13:42:40.819Z,7.20
2017-06-23T13:45:08.361Z,10.10
2017-06-23T13:47:36.990Z,7.07
2017-06-23T13:50:04.498Z,6.23
2017-06-23T13:52:32.801Z,7.17
2017-06-23T13:55:00.618Z,5.80
2017-06-23T13:57:28.129Z,4.77
2017-06-23T13:59:55.643Z,5.13
2017-06-23T14:02:23.517Z,4.87
2017-06-23T14:04:51.018Z,5.53
2017-06-23T14:07:18.556Z,6.07
2017-06-23T14:09:46.499Z,6.40
2017-06-23T14:12:14.010Z,7.27
2017-06-23T14:14:41.523Z,6.73
2017-06-23T14:17:09.362Z,7.30
2017-06-23T14:19:36.874Z,6.00
2017-06-23T14:22:05.149Z,7.57
2017-06-23T14:24:33.716Z,8.60
2017-06-23T14:27:01.228Z,7.40
2017-06-23T14:29:28.764Z,7.47
2017-06-23T14:31:56.770Z,7.47
2017-06-23T14:34:24.349Z,7.03
2017-06-23T14:36:51.868Z,7.70
2017-06-23T14:39:19.744Z,7.47
2017-06-23T14:41:47.252Z,7.33
2017-06-23T14:44:14.757Z,6.13
2017-06-23T14:46:42.551Z,6.30
2017-06-23T14:49:10.085Z,5.40
2017-06-23T14:51:37.608Z,5.87
2017-06-23T14:54:05.418Z,6.53
2017-06-23T14:56:32.935Z,6.37
2017-06-23T14:59:00.457Z,5.80
2017-06-23T15:01:28.315Z,6.03
2017-06-23T15:03:55.866Z,5.23
2017-06-23T15:06:23.380Z,5.43
2017-06-23T15:08:51.295Z,6.13
2017-06-23T15:11:18.841Z,5.70
2017-06-23T15:13:46.358Z,6.67
2017-06-23T15:16:15.020Z,6.20
2017-06-23T15:18:48.657Z,5.80
2017-06-23T15:21:16.494Z,5.83
2017-06-23T15:23:56.549Z,6.20
2017-06-23T15:26:24.364Z,5.93
2017-06-23T15:28:51.882Z,7.07
2017-06-23T15:31:19.423Z,5.90
2017-06-23T15:33:47.286Z,6.00
2017-06-23T15:36:15.611Z,5.90
2017-06-23T15:38:43.127Z,5.47
2017-06-23T15:41:10.971Z,6.10
2017-06-23T15:46:38.071Z,5.90
2017-06-23T15:49:15.449Z,6.17
2017-06-23T15:51:49.291Z,6.40
2017-06-23T15:54:16.820Z,7.30
2017-06-23T15:56:44.356Z,7.20
2017-06-23T15:59:19.587Z,5.70
2017-06-23T16:01:50.620Z,6.30
2017-06-23T16:04:26.448Z,6.47
2017-06-23T16:06:53.958Z,7.17
2017-06-23T16:09:21.478Z,7.77
2017-06-23T16:11:49.303Z,7.67
2017-06-23T16:14:16.836Z,8.00
2017-06-23T16:16:44.374Z,8.10
2017-06-23T16:19:12.193Z,7.17
2017-06-23T16:21:39.730Z,8.77
2017-06-23T16:24:26.914Z,9.07
2017-06-23T16:26:57.443Z,8.50
2017-06-23T16:29:28.587Z,9.33
2017-06-23T16:31:59.442Z,10.67
2017-06-23T16:34:35.201Z,9.30
2017-06-23T16:37:06.352Z,10.10
2017-06-23T16:39:44.503Z,9.90
2017-06-23T16:42:15.625Z,9.77
2017-06-23T16:44:43.162Z,11.07
2017-06-23T16:47:11.781Z,11.07
2017-06-23T16:49:39.344Z,10.40
2017-06-23T16:52:06.880Z,9.97
2017-06-23T16:54:34.702Z,10.90
2017-06-23T16:57:02.250Z,10.67
2017-06-23T16:59:29.784Z,11.67
2017-06-23T17:01:57.661Z,11.47
2017-06-23T17:04:25.180Z,10.13
2017-06-23T17:06:53.489Z,11.90
2017-06-23T17:09:21.367Z,10.70
2017-06-23T17:11:48.909Z,11.03
2017-06-23T17:14:16.423Z,11.07
2017-06-23T17:16:44.385Z,12.00
2017-06-23T17:19:11.920Z,11.50
2017-06-23T17:21:39.430Z,12.43
2017-06-23T17:24:07.266Z,11.97
2017-06-23T17:26:34.834Z,13.20
2017-06-23T17:29:02.362Z,11.87
2017-06-23T17:31:30.230Z,14.27
2017-06-23T17:33:57.774Z,12.67
2017-06-23T17:36:25.294Z,13.50
2017-06-23T17:38:53.082Z,13.03
2017-06-23T17:41:20.625Z,12.40
2017-06-23T17:43:48.909Z,13.10
2017-06-23T17:46:16.905Z,14.47
2017-06-23T17:48:44.437Z,13.63
2017-06-23T17:51:12.741Z,14.20
2017-06-23T17:53:40.634Z,13.80
2017-06-23T17:56:08.158Z,13.97
2017-06-23T17:58:35.698Z,14.27
2017-06-23T18:01:03.613Z,13.67
2017-06-23T18:03:31.165Z,14.90
2017-06-23T18:05:58.977Z,13.90
2017-06-23T18:08:27.501Z,15.23
2017-06-23T18:10:55.037Z,15.00
2017-06-23T18:13:24.220Z,14.73
2017-06-23T18:15:52.628Z,15.80
2017-06-23T18:18:20.471Z,14.30
2017-06-23T18:20:48.567Z,14.57
2017-06-23T18:23:16.699Z,15.23
2017-06-23T18:25:45.051Z,16.07
2017-06-23T18:28:13.501Z,15.17
2017-06-23T18:30:42.095Z,16.10
2017-06-23T18:33:09.620Z,16.60
2017-06-23T18:35:37.145Z,16.30
2017-06-23T18:38:05.029Z,18.07
2017-06-23T18:40:32.567Z,16.90
2017-06-23T18:43:00.109Z,17.00
2017-06-23T18:45:27.920Z,17.67
2017-06-23T18:47:55.453Z,16.73
2017-06-23T18:50:22.988Z,16.53
2017-06-23T18:52:51.704Z,18.13
2017-06-23T18:55:19.233Z,19.30
2017-06-23T18:57:46.767Z,19.00
2017-06-23T19:00:15.205Z,18.33
2017-06-23T19:02:42.724Z,19.63
2017-06-23T19:05:10.299Z,18.90
2017-06-23T19:07:38.110Z,19.60
2017-06-23T19:10:05.666Z,19.17
2017-06-23T19:12:33.198Z,20.83
2017-06-23T19:15:01.027Z,21.67
2017-06-23T19:17:28.555Z,22.87
2017-06-23T19:19:56.078Z,22.00
2017-06-23T19:22:23.890Z,21.80
2017-06-23T19:24:51.447Z,23.33
2017-06-23T19:27:19.060Z,22.93
2017-06-23T19:29:47.094Z,22.90
2017-06-23T19:32:14.620Z,21.00
2017-06-23T19:34:42.159Z,20.57
2017-06-23T19:37:10.019Z,22.63
2017-06-23T19:39:37.523Z,23.73
2017-06-23T19:42:05.048Z,19.33
2017-06-23T19:44:32.933Z,21.63
2017-06-23T19:47:00.471Z,19.70
2017-06-23T19:49:28.002Z,19.80
2017-06-23T19:51:55.939Z,21.23
2017-06-23T19:54:23.482Z,20.63
2017-06-23T19:56:51.032Z,20.77
2017-06-23T19:59:18.978Z,23.53
2017-06-23T20:01:47.266Z,22.13
2017-06-23T20:04:14.791Z,22.97
2017-06-23T20:06:42.621Z,21.83
2017-06-23T20:09:10.210Z,24.17
2017-06-23T20:17:27.029Z,21.07
2017-06-23T20:19:58.027Z,25.93
2017-06-23T20:22:29.132Z,25.27
2017-06-23T20:25:00.278Z,25.07
2017-06-23T20:27:35.475Z,22.70
2017-06-23T20:33:06.201Z,21.37
2017-06-23T20:35:44.314Z,21.93
2017-06-23T20:41:08.462Z,22.30
2017-06-23T20:43:43.860Z,22.50
2017-06-23T20:46:22.202Z,25.20
2017-06-23T20:48:57.083Z,26.60
2017-06-23T20:51:27.821Z,29.07
2017-06-23T20:53:58.702Z,30.10
2017-06-23T20:56:32.951Z,31.37
2017-06-23T20:59:10.875Z,34.43
2017-06-23T21:01:49.295Z,32.97
2017-06-23T21:04:27.191Z,31.67
2017-06-23T21:07:05.677Z,30.47
2017-06-23T21:09:43.233Z,35.00
2017-06-23T21:12:14.542Z,31.80
2017-06-23T21:14:51.891Z,37.43
2017-06-23T21:17:32.024Z,35.13
2017-06-23T21:20:06.826Z,33.57
2017-06-23T21:22:37.653Z,29.33
2017-06-23T21:25:13.165Z,31.87
2017-06-23T21:27:42.556Z,29.67
2017-06-23T21:30:19.781Z,26.40
2017-06-23T21:32:54.916Z,31.73
2017-06-23T21:35:30.841Z,32.23
2017-06-23T21:38:06.128Z,28.40
2017-06-23T21:40:49.078Z,31.43
2017-06-23T21:43:20.204Z,32.27
2017-06-23T21:45:55.340Z,31.80
2017-06-23T21:48:28.961Z,30.73
2017-06-23T21:50:59.670Z,30.97
2017-06-23T21:53:37.659Z,29.07
2017-06-23T21:56:15.763Z,28.50
2017-06-23T21:58:51.011Z,27.87
2017-06-23T22:01:31.573Z,27.60
2017-06-23T22:04:07.009Z,28.40
2017-06-23T22:06:41.953Z,30.47
2017-06-23T22:09:20.286Z,32.13
2017-06-23T22:11:50.937Z,31.47
2017-06-23T22:14:22.267Z,32.93
2017-06-23T22:16:57.899Z,35.27
2017-06-23T22:19:38.646Z,35.07
2017-06-23T22:22:09.761Z,35.50
2017-06-23T22:24:50.315Z,34.33
2017-06-23T22:27:24.336Z,37.93
2017-06-23T22:30:00.360Z,36.43
2017-06-23T22:32:31.596Z,35.87
2017-06-23T22:35:09.425Z,37.17
2017-06-23T22:37:40.296Z,38.53
2017-06-23T22:40:15.601Z,41.20
2017-06-23T22:42:52.935Z,40.00
2017-06-23T22:45:30.409Z,39.63
2017-06-23T22:48:05.717Z,41.30
2017-06-23T22:50:37.395Z,38.57
2017-06-23T22:53:14.879Z,38.50
2017-06-23T22:55:44.206Z,32.70
2017-06-23T22:58:17.477Z,28.13
2017-06-23T23:00:53.289Z,26.93
2017-06-23T23:03:31.222Z,24.73
2017-06-23T23:06:05.564Z,26.33
2017-06-23T23:08:36.400Z,25.13
2017-06-23T23:11:07.707Z,25.70
2017-06-23T23:13:43.264Z,25.20
2017-06-23T23:16:15.003Z,25.17
2017-06-23T23:18:48.363Z,23.60
2017-06-23T23:21:22.435Z,26.13
2017-06-23T23:24:09.009Z,23.53
2017-06-23T23:26:40.111Z,25.00
2017-06-23T23:29:10.745Z,23.60
2017-06-23T23:31:41.869Z,30.77
2017-06-23T23:34:15.232Z,26.33
2017-06-23T23:36:46.745Z,30.23
2017-06-23T23:39:20.007Z,29.43
2017-06-23T23:41:53.846Z,35.40
2017-06-23T23:44:27.185Z,29.80
2017-06-23T23:47:01.275Z,33.00
2017-06-23T23:49:36.937Z,29.70
2017-06-23T23:52:26.398Z,24.93
2017-06-23T23:54:56.932Z,24.77
